Time;durP1;ratioP1;P1;durP2;ratioP2;P2;SDS_P1;SDS_P2;PMS_P1;PMS_P2;Temp;Humidity;BMP_temperature;BMP_pressure;BME280_temperature;BME280_humidity;BME280_pressure;Samples;Min_cycle;Max_cycle;Signal;HPM_P1;HPM_P2
2023/07/29 00:01:42;;;;;;;8.52;4.07;;;;;;;22.51;46.55;99814.97;5104094;28;20059;-23
2023/07/29 00:04:11;;;;;;;7.22;3.90;;;;;;;22.72;45.89;99823.47;5104148;28;20385;-23
2023/07/29 00:06:40;;;;;;;8.10;4.00;;;;;;;22.53;45.85;99824.44;5104184;28;20528;-24
2023/07/29 00:09:05;;;;;;;6.53;3.63;;;;;;;22.41;45.32;99821.44;5104258;28;20031;-23
2023/07/29 00:11:33;;;;;;;5.63;3.67;;;;;;;22.01;45.21;99811.06;5104239;28;20042;-23
2023/07/29 00:13:58;;;;;;;;;;;;;;;21.44;47.25;99826.75;5104970;28;20164;-23
2023/07/29 00:16:24;;;;;;;6.35;4.45;;;;;;;20.95;48.70;99830.75;5103865;28;20002;-23
2023/07/29 00:18:49;;;;;;;6.82;3.38;;;;;;;20.93;48.96;99819.41;5103993;28;20413;-24
2023/07/29 00:21:17;;;;;;;5.40;3.78;;;;;;;20.81;49.02;99822.53;5103782;28;20049;-24
2023/07/29 00:23:43;;;;;;;6.07;3.58;;;;;;;20.62;49.46;99817.13;5104026;28;20035;-23
2023/07/29 00:26:08;;;;;;;5.68;3.55;;;;;;;20.49;50.11;99813.16;5104220;28;20040;-25
2023/07/29 00:28:36;;;;;;;5.80;3.50;;;;;;;20.53;49.76;99818.81;5104103;28;20020;-23
2023/07/29 00:31:02;;;;;;;7.78;4.03;;;;;;;20.64;49.92;99823.84;5103630;28;20099;-28
2023/07/29 00:33:27;;;;;;;7.85;3.60;;;;;;;20.89;49.16;99810.25;5104941;28;20040;-23
2023/07/29 00:35:53;;;;;;;7.45;4.07;;;;;;;20.73;49.84;99815.88;5107587;28;20459;-23
2023/07/29 00:38:18;;;;;;;6.95;3.92;;;;;;;20.43;50.59;99804.34;5107679;28;20092;-27
2023/07/29 00:40:43;;;;;;;6.03;3.65;;;;;;;20.40;50.48;99804.91;5107874;28;20038;-24
2023/07/29 00:43:09;;;;;;;7.80;3.88;;;;;;;20.33;50.90;99799.03;5107631;28;20023;-24
2023/07/29 00:45:35;;;;;;;5.93;3.45;;;;;;;20.16;51.31;99790.59;5107472;27;20477;-24
2023/07/29 00:48:03;;;;;;;5.72;3.70;;;;;;;20.17;51.39;99789.50;5107524;28;20027;-24
2023/07/29 00:50:30;;;;;;;5.78;3.58;;;;;;;20.25;51.50;99791.56;5107718;28;20024;-23
2023/07/29 00:52:56;;;;;;;6.68;3.47;;;;;;;20.29;51.77;99798.00;5107628;28;20027;-24
2023/07/29 00:55:24;;;;;;;6.38;3.75;;;;;;;20.46;51.36;99801.03;5107374;28;20135;-24
2023/07/29 00:57:51;;;;;;;;;;;;;;;20.51;51.34;99805.56;5107955;28;20092;-23
2023/07/29 01:00:17;;;;;;;8.07;3.85;;;;;;;20.29;51.63;99808.84;5107534;27;19916;-23
2023/07/29 01:02:43;;;;;;;8.18;3.72;;;;;;;20.14;51.68;99806.31;5107503;28;20036;-24
2023/07/29 01:05:11;;;;;;;5.20;3.30;;;;;;;20.22;51.94;99813.78;5106850;28;20031;-23
2023/07/29 01:07:42;;;;;;;;;;;;;;;20.53;51.20;99810.69;5107652;28;20023;-25
2023/07/29 01:10:19;;;;;;;6.05;3.58;;;;;;;20.19;51.77;99792.72;5107270;27;19999;-24
2023/07/29 01:12:54;;;;;;;6.82;3.33;;;;;;;20.16;52.20;99788.66;5107429;28;20027;-23
2023/07/29 01:15:32;;;;;;;5.25;3.00;;;;;;;20.53;51.29;99802.56;5107321;28;20036;-23
2023/07/29 01:18:11;;;;;;;7.22;3.05;;;;;;;20.32;52.59;99802.84;5107035;28;20128;-24
2023/07/29 01:20:40;;;;;;;7.35;3.28;;;;;;;20.07;53.52;99807.47;5107096;28;20149;-24
2023/07/29 01:23:10;;;;;;;4.88;2.72;;;;;;;20.25;53.12;99813.22;5106502;28;20023;-24
2023/07/29 01:25:35;;;;;;;4.47;2.72;;;;;;;20.09;53.63;99803.69;5106686;28;20038;-24
2023/07/29 01:28:03;;;;;;;6.95;3.35;;;;;;;20.24;53.41;99801.56;5107143;28;20031;-28
2023/07/29 01:30:31;;;;;;;;;;;;;;;19.88;54.57;99809.31;5107108;28;20047;-23
2023/07/29 01:33:10;;;;;;;6.10;3.28;;;;;;;20.00;54.65;99812.44;5106685;28;19912;-23
2023/07/29 01:35:42;;;;;;;5.13;3.10;;;;;;;20.27;53.63;99790.16;5106894;28;20050;-24
2023/07/29 01:38:20;;;;;;;5.43;3.20;;;;;;;19.80;55.10;99808.03;5106683;28;20069;-24
2023/07/29 01:40:48;;;;;;;5.05;2.90;;;;;;;19.85;54.97;99788.22;5106627;28;20102;-24
2023/07/29 01:43:14;;;;;;;5.82;2.72;;;;;;;20.10;54.79;99810.69;5106346;28;20035;-23
2023/07/29 01:45:40;;;;;;;4.65;2.83;;;;;;;19.79;55.82;99813.72;5106666;28;20035;-24
2023/07/29 01:48:06;;;;;;;5.78;2.70;;;;;;;19.81;56.19;99803.41;5106574;28;20038;-24
2023/07/29 01:50:34;;;;;;;5.10;2.70;;;;;;;19.85;56.25;99812.56;5106331;28;20840;-23
2023/07/29 01:53:00;;;;;;;4.95;2.65;;;;;;;20.26;55.16;99812.91;5106652;27;20118;-23
2023/07/29 01:55:29;;;;;;;6.68;2.60;;;;;;;20.19;55.31;99808.97;5105959;28;20054;-24
2023/07/29 01:57:54;;;;;;;5.95;2.67;;;;;;;20.09;55.74;99820.72;5106174;28;20053;-23
2023/07/29 02:00:21;;;;;;;5.07;3.10;;;;;;;19.72;57.96;99822.19;5105929;28;20044;-23
2023/07/29 02:02:46;;;;;;;7.43;3.45;;;;;;;19.65;55.19;99838.69;5106258;28;20115;-26
2023/07/29 02:05:12;;;;;;;6.82;3.65;;;;;;;19.50;55.26;99825.31;5106015;28;20229;-24
2023/07/29 02:07:37;;;;;;;9.15;4.13;;;;;;;19.40;55.66;99822.72;5105580;28;20028;-24
2023/07/29 02:10:05;;;;;;;5.90;3.72;;;;;;;18.79;57.44;99830.16;5105922;28;20031;-24
2023/07/29 02:12:30;;;;;;;6.20;3.67;;;;;;;18.26;60.00;99822.53;5105827;28;20065;-23
2023/07/29 02:14:56;;;;;;;7.15;4.10;;;;;;;18.33;60.07;99824.97;5105697;27;20111;-23
2023/07/29 02:17:21;;;;;;;7.85;4.10;;;;;;;18.81;57.93;99830.69;5106211;28;20023;-24
2023/07/29 02:19:47;;;;;;;7.03;4.35;;;;;;;18.64;58.43;99825.63;5105827;28;20429;-23
2023/07/29 02:22:17;;;;;;;7.78;4.15;;;;;;;18.27;59.71;99813.38;5106085;28;20431;-24
2023/07/29 02:24:43;;;;;;;5.47;3.70;;;;;;;18.40;59.31;99808.47;5105451;28;20810;-23
2023/07/29 02:27:08;;;;;;;7.13;3.97;;;;;;;18.81;58.33;99824.47;5105989;28;20028;-23
2023/07/29 02:29:34;;;;;;;6.53;4.18;;;;;;;19.07;57.51;99825.13;5105994;28;20427;-24
2023/07/29 02:32:00;;;;;;;6.97;3.95;;;;;;;19.25;57.08;99824.44;5106052;28;20027;-23
2023/07/29 02:34:25;;;;;;;7.30;4.00;;;;;;;19.02;57.35;99823.28;5105590;27;20031;-25
2023/07/29 02:36:51;;;;;;;7.63;4.15;;;;;;;18.99;57.56;99829.22;5105145;28;20091;-24
2023/07/29 02:39:16;;;;;;;9.35;4.13;;;;;;;19.31;57.05;99837.91;5105379;28;20020;-24
2023/07/29 02:41:42;;;;;;;7.57;4.35;;;;;;;19.21;56.75;99842.31;5105684;28;20098;-25
2023/07/29 02:44:07;;;;;;;6.50;4.32;;;;;;;18.98;57.90;99835.72;5105395;28;20024;-24
2023/07/29 02:46:33;;;;;;;6.55;4.20;;;;;;;18.86;58.28;99830.66;5105605;28;20051;-26
2023/07/29 02:48:59;;;;;;;8.82;4.78;;;;;;;18.42;60.01;99844.88;5105569;28;20466;-24
2023/07/29 02:51:24;;;;;;;6.03;3.88;;;;;;;18.55;60.02;99842.66;5105275;28;20799;-24
2023/07/29 02:53:50;;;;;;;10.95;4.80;;;;;;;18.94;59.03;99845.47;5105511;28;20388;-24
2023/07/29 02:56:18;;;;;;;8.18;3.90;;;;;;;18.64;59.21;99833.72;5104574;28;20461;-24
2023/07/29 02:58:44;;;;;;;8.60;4.13;;;;;;;18.87;58.80;99842.28;5104492;28;20103;-24
2023/07/29 03:01:10;;;;;;;6.13;3.83;;;;;;;18.24;60.99;99837.41;5105058;28;20122;-25
2023/07/29 03:03:35;;;;;;;6.03;3.97;;;;;;;18.11;61.90;99832.59;5105136;28;20027;-23
2023/07/29 03:06:08;;;;;;;8.90;4.15;;;;;;;18.44;60.46;99837.31;5104840;28;20126;-23
2023/07/29 03:08:34;;;;;;;16.00;4.60;;;;;;;18.05;62.03;99843.38;5104920;28;20500;-24
2023/07/29 03:11:10;;;;;;;8.60;3.90;;;;;;;18.19;61.63;99850.94;5105090;28;20035;-26
2023/07/29 03:13:35;;;;;;;10.20;3.70;;;;;;;18.14;61.45;99845.53;5105294;28;20106;-23
2023/07/29 03:16:14;;;;;;;9.75;4.05;;;;;;;17.99;62.01;99847.19;5105300;28;20134;-22
2023/07/29 03:18:41;;;;;;;7.20;4.00;;;;;;;18.17;62.46;99847.69;5104681;28;20030;-24
2023/07/29 03:21:08;;;;;;;6.60;3.80;;;;;;;18.30;61.27;99846.28;5104756;28;20038;-23
2023/07/29 03:23:34;;;;;;;8.40;3.75;;;;;;;18.21;61.73;99849.56;5104724;28;20058;-24
2023/07/29 03:26:01;;;;;;;7.82;4.00;;;;;;;18.27;61.25;99847.66;5104956;28;20567;-23
2023/07/29 03:28:30;;;;;;;12.95;3.95;;;;;;;18.94;58.97;99847.34;5104900;28;20019;-24
2023/07/29 03:30:56;;;;;;;6.75;3.70;;;;;;;19.05;58.33;99854.31;5104663;28;20557;-24
2023/07/29 03:33:22;;;;;;;8.70;3.55;;;;;;;19.20;57.55;99853.41;5104053;28;20477;-24
2023/07/29 03:35:48;;;;;;;8.15;3.47;;;;;;;18.55;60.70;99856.19;5104250;28;20019;-25
2023/07/29 03:38:14;;;;;;;7.85;3.60;;;;;;;17.99;62.08;99863.38;5104526;28;20027;-24
2023/07/29 03:40:41;;;;;;;7.70;3.00;;;;;;;18.03;62.65;99861.75;5104847;28;20427;-24
2023/07/29 03:43:06;;;;;;;7.68;3.70;;;;;;;17.84;63.17;99858.00;5104607;28;20074;-25
2023/07/29 03:45:33;;;;;;;10.40;4.25;;;;;;;18.25;61.93;99872.22;5104309;28;20059;-23
2023/07/29 03:47:58;;;;;;;15.90;4.90;;;;;;;18.07;60.55;99875.50;5104345;28;20020;-24
2023/07/29 03:50:24;;;;;;;11.43;4.70;;;;;;;18.02;60.68;99873.63;5104282;28;20031;-23
2023/07/29 03:52:52;;;;;;;7.05;4.38;;;;;;;17.84;61.39;99885.00;5104219;28;20024;-23
2023/07/29 03:55:21;;;;;;;9.35;4.93;;;;;;;17.96;62.13;99880.13;5104300;28;20122;-24
2023/07/29 03:57:48;;;;;;;13.15;5.25;;;;;;;17.92;63.25;99879.03;5104421;28;20031;-23
2023/07/29 04:00:14;;;;;;;10.45;5.40;;;;;;;17.96;63.57;99884.69;5103969;28;20039;-23
2023/07/29 04:02:40;;;;;;;26.08;7.32;;;;;;;17.95;64.01;99873.09;5104113;28;20055;-23
2023/07/29 04:05:08;;;;;;;11.95;5.05;;;;;;;17.97;64.15;99880.91;5104090;28;20031;-25
2023/07/29 04:07:34;;;;;;;10.82;5.30;;;;;;;17.92;65.14;99884.44;5104845;28;20030;-23
2023/07/29 04:10:00;;;;;;;10.18;5.13;;;;;;;18.28;63.37;99897.84;5108039;28;20054;-23
2023/07/29 04:12:26;;;;;;;13.60;5.68;;;;;;;18.16;63.76;99883.84;5108053;28;20088;-23
2023/07/29 04:14:52;;;;;;;8.13;4.90;;;;;;;18.46;62.54;99881.06;5108367;28;20031;-23
2023/07/29 04:17:17;;;;;;;16.63;6.20;;;;;;;18.56;61.43;99888.31;5108011;28;20039;-23
2023/07/29 04:19:42;;;;;;;16.23;7.00;;;;;;;18.85;60.58;99883.06;5108411;28;20020;-23
2023/07/29 04:22:08;;;;;;;12.32;6.43;;;;;;;18.82;61.04;99882.84;5108072;27;20080;-24
2023/07/29 04:24:33;;;;;;;13.65;6.10;;;;;;;18.86;60.77;99892.81;5108318;27;20085;-24
2023/07/29 04:26:59;;;;;;;16.20;6.40;;;;;;;19.05;60.41;99889.47;5108125;28;20534;-24
2023/07/29 04:29:24;;;;;;;14.63;6.32;;;;;;;19.42;59.36;99896.25;5107888;28;20024;-24
2023/07/29 04:31:50;;;;;;;10.80;5.85;;;;;;;19.15;60.84;99894.81;5107953;28;20044;-24
2023/07/29 04:34:20;;;;;;;16.20;6.82;;;;;;;19.25;60.89;99897.44;5108112;28;20027;-29
2023/07/29 04:36:46;;;;;;;15.20;5.65;;;;;;;19.40;60.59;99901.13;5107950;28;20020;-25
2023/07/29 04:39:12;;;;;;;12.88;5.88;;;;;;;19.63;59.52;99900.38;5107554;28;20592;-25
2023/07/29 04:41:37;;;;;;;10.43;5.22;;;;;;;19.59;59.14;99904.75;5107622;28;20028;-24
2023/07/29 04:44:03;;;;;;;12.63;5.63;;;;;;;19.68;59.19;99907.69;5107788;28;20028;-25
2023/07/29 04:46:28;;;;;;;10.40;5.22;;;;;;;19.77;58.67;99895.19;5107607;28;20058;-24
2023/07/29 04:48:53;;;;;;;15.02;6.65;;;;;;;19.80;59.94;99893.81;5107644;28;20017;-24
2023/07/29 04:51:19;;;;;;;12.73;6.80;;;;;;;19.89;59.82;99889.38;5107653;28;20412;-25
2023/07/29 04:53:49;;;;;;;14.35;7.05;;;;;;;20.31;59.24;99895.19;5107574;28;20122;-26
2023/07/29 04:56:14;;;;;;;12.05;6.97;;;;;;;20.40;59.01;99907.81;5107138;28;20070;-24
2023/07/29 04:58:40;;;;;;;9.98;4.97;;;;;;;20.31;57.61;99904.13;5107986;28;20290;-24
2023/07/29 05:01:07;;;;;;;9.13;5.50;;;;;;;20.20;58.60;99889.88;5107401;28;20047;-25
2023/07/29 05:03:33;;;;;;;8.38;5.22;;;;;;;20.58;57.73;99905.47;5107660;28;20515;-24
2023/07/29 05:05:59;;;;;;;10.73;4.93;;;;;;;20.68;57.91;99908.06;5107454;28;20027;-25
2023/07/29 05:08:25;;;;;;;6.47;4.35;;;;;;;20.87;57.31;99905.38;5107150;28;20855;-25
2023/07/29 05:10:52;;;;;;;11.13;4.95;;;;;;;20.80;57.02;99908.47;5107381;28;20111;-24
2023/07/29 05:13:18;;;;;;;8.50;4.75;;;;;;;20.97;56.22;99912.59;5107022;28;20495;-24
2023/07/29 05:15:44;;;;;;;8.45;4.30;;;;;;;21.03;56.71;99919.56;5107390;28;20031;-25
2023/07/29 05:18:09;;;;;;;7.22;3.83;;;;;;;21.25;55.86;99927.91;5106794;28;20027;-23
2023/07/29 05:20:35;;;;;;;7.13;4.07;;;;;;;21.48;55.23;99928.16;5106909;28;20023;-25
2023/07/29 05:23:00;;;;;;;7.35;3.92;;;;;;;21.35;54.96;99942.41;5107583;27;20763;-25
2023/07/29 05:25:26;;;;;;;8.10;4.35;;;;;;;21.64;54.63;99934.16;5106935;28;20031;-24
2023/07/29 05:27:52;;;;;;;6.55;3.85;;;;;;;21.52;55.58;99936.50;5106755;27;20023;-26
2023/07/29 05:30:17;;;;;;;6.40;3.75;;;;;;;21.87;53.41;99937.84;5106870;28;20045;-23
2023/07/29 05:32:42;;;;;;;6.80;3.72;;;;;;;22.08;53.59;99939.06;5105658;28;20076;-23
2023/07/29 05:35:10;;;;;;;7.50;4.05;;;;;;;22.36;52.52;99935.66;5106767;28;20136;-25
2023/07/29 05:37:39;;;;;;;;;;;;;;;22.26;52.68;99936.63;5107121;28;20087;-24
2023/07/29 05:40:06;;;;;;;5.82;3.55;;;;;;;22.28;53.13;99929.00;5106533;28;19981;-26
2023/07/29 05:42:32;;;;;;;25.27;4.93;;;;;;;22.46;53.59;99936.25;5107162;28;20054;-24
2023/07/29 05:44:58;;;;;;;6.75;3.15;;;;;;;22.87;51.30;99943.59;5106173;28;20711;-33
2023/07/29 05:47:23;;;;;;;6.93;3.33;;;;;;;22.90;51.51;99936.72;5106895;28;20020;-24
2023/07/29 05:49:48;;;;;;;8.20;3.38;;;;;;;23.06;51.82;99938.03;5106716;28;20031;-26
2023/07/29 05:52:15;;;;;;;11.23;2.78;;;;;;;23.08;52.20;99935.03;5106374;28;20035;-23
2023/07/29 05:54:42;;;;;;;5.90;2.65;;;;;;;23.16;52.79;99931.56;5106674;28;20055;-23
2023/07/29 05:57:09;;;;;;;4.88;2.53;;;;;;;23.25;51.97;99932.47;5106417;28;20030;-24
2023/07/29 05:59:36;;;;;;;6.28;2.80;;;;;;;23.50;51.53;99937.59;5106087;28;20080;-27
2023/07/29 06:02:04;;;;;;;5.88;2.50;;;;;;;23.53;51.82;99926.91;5106872;28;20123;-23
2023/07/29 06:04:30;;;;;;;5.95;2.92;;;;;;;23.80;50.61;99923.31;5106540;28;20040;-24
2023/07/29 06:06:58;;;;;;;7.65;3.42;;;;;;;23.74;50.48;99932.69;5106220;28;20017;-23
2023/07/29 06:09:23;;;;;;;;;;;;;;;23.93;49.03;99932.50;5106862;28;20024;-23
2023/07/29 06:11:49;;;;;;;19.95;3.63;;;;;;;24.10;48.38;99928.28;5106524;28;20357;-25
2023/07/29 06:14:14;;;;;;;5.78;3.22;;;;;;;24.25;45.92;99930.56;5106227;28;20044;-24
2023/07/29 06:16:39;;;;;;;5.85;3.30;;;;;;;24.39;43.84;99931.28;5105926;28;20038;-24
2023/07/29 06:19:05;;;;;;;5.82;3.33;;;;;;;24.50;41.85;99937.31;5105725;28;20026;-25
2023/07/29 06:21:31;;;;;;;5.63;3.42;;;;;;;24.63;43.55;99930.91;5106036;28;20035;-23
2023/07/29 06:23:56;;;;;;;6.57;3.58;;;;;;;24.85;42.33;99927.28;5105792;28;20110;-23
2023/07/29 06:26:22;;;;;;;5.38;3.28;;;;;;;24.79;41.55;99933.22;5105738;28;20062;-23
2023/07/29 06:28:47;;;;;;;4.00;3.03;;;;;;;24.70;42.53;99930.44;5105599;28;20421;-23
2023/07/29 06:31:12;;;;;;;6.03;3.30;;;;;;;24.93;41.32;99933.06;5104801;28;20062;-23
2023/07/29 06:33:38;;;;;;;6.60;3.45;;;;;;;25.12;41.66;99932.78;5105773;28;20047;-23
2023/07/29 06:36:04;;;;;;;5.22;2.92;;;;;;;25.16;40.86;99937.28;5104173;28;20435;-23
2023/07/29 06:38:30;;;;;;;7.75;4.07;;;;;;;25.25;42.27;99935.41;5105610;28;20389;-24
2023/07/29 06:40:55;;;;;;;6.55;3.33;;;;;;;25.23;41.04;99928.63;5105597;28;20038;-24
2023/07/29 06:43:21;;;;;;;5.88;3.15;;;;;;;25.35;39.86;99926.06;5105626;28;20027;-23
2023/07/29 06:45:46;;;;;;;6.68;3.22;;;;;;;25.49;37.90;99928.63;5105069;28;20096;-24
2023/07/29 06:48:12;;;;;;;5.03;3.30;;;;;;;25.41;38.58;99930.25;5105601;28;20031;-23
2023/07/29 06:50:37;;;;;;;4.75;3.10;;;;;;;25.50;38.33;99924.81;5105409;27;20432;-27
2023/07/29 06:53:05;;;;;;;13.15;3.90;;;;;;;25.68;37.37;99925.56;5104052;28;20031;-25
2023/07/29 06:55:31;;;;;;;6.15;3.53;;;;;;;25.62;36.76;99933.13;5105176;28;20024;-24
2023/07/29 06:57:59;;;;;;;7.53;3.58;;;;;;;25.76;37.41;99921.22;5105072;28;20569;-24
2023/07/29 07:00:25;;;;;;;7.40;3.70;;;;;;;26.09;36.08;99934.34;5104971;28;20039;-23
2023/07/29 07:02:50;;;;;;;5.85;3.40;;;;;;;26.08;34.97;99932.75;5105084;28;20031;-27
2023/07/29 07:05:15;;;;;;;8.13;3.65;;;;;;;26.21;35.20;99929.00;5105048;28;20089;-24
2023/07/29 07:07:42;;;;;;;8.63;4.00;;;;;;;26.20;36.51;99925.47;5105018;28;20015;-24
2023/07/29 07:10:07;;;;;;;6.38;3.28;;;;;;;26.29;35.67;99933.63;5104885;28;20043;-25
2023/07/29 07:12:33;;;;;;;9.27;3.92;;;;;;;26.25;35.27;99921.75;5105242;28;20054;-24
2023/07/29 07:14:58;;;;;;;9.05;4.20;;;;;;;26.28;35.63;99928.50;5105140;28;20023;-25
2023/07/29 07:17:24;;;;;;;7.72;3.70;;;;;;;26.56;35.29;99917.91;5103413;28;20442;-24
2023/07/29 07:19:49;;;;;;;6.07;3.40;;;;;;;26.54;35.28;99917.44;5104744;27;20106;-24
2023/07/29 07:22:16;;;;;;;7.65;3.92;;;;;;;26.60;35.94;99914.22;5104953;28;20035;-24
2023/07/29 07:24:41;;;;;;;8.68;4.10;;;;;;;26.73;35.35;99917.84;5104314;28;20044;-24
2023/07/29 07:27:06;;;;;;;5.72;3.53;;;;;;;26.88;34.20;99902.78;5104919;28;20027;-25
2023/07/29 07:29:32;;;;;;;6.82;3.42;;;;;;;26.77;35.68;99905.13;5104761;28;20027;-23
2023/07/29 07:32:00;;;;;;;5.55;3.78;;;;;;;27.07;34.24;99902.31;5104793;28;20454;-24
2023/07/29 07:34:28;;;;;;;6.28;3.70;;;;;;;27.27;34.43;99902.69;5104692;28;20523;-24
2023/07/29 07:36:53;;;;;;;7.63;4.15;;;;;;;27.35;33.93;99901.81;5104788;28;20039;-24
2023/07/29 07:39:19;;;;;;;7.63;3.47;;;;;;;27.41;34.04;99892.25;5104615;28;20590;-24
2023/07/29 07:41:44;;;;;;;7.15;4.07;;;;;;;27.68;32.97;99888.13;5104335;28;20040;-24
2023/07/29 07:44:15;;;;;;;8.68;4.15;;;;;;;27.77;33.81;99893.53;5104653;28;20027;-24
2023/07/29 07:46:42;;;;;;;7.38;3.72;;;;;;;27.98;32.86;99890.72;5104746;28;20160;-24
2023/07/29 07:49:08;;;;;;;;;;;;;;;27.85;32.87;99881.66;5104793;28;20028;-27
2023/07/29 07:51:33;;;;;;;7.30;4.10;;;;;;;27.90;33.69;99880.66;5104249;28;20304;-24
2023/07/29 07:53:58;;;;;;;7.25;4.18;;;;;;;28.28;34.08;99879.53;5103958;28;20266;-24
2023/07/29 07:56:24;;;;;;;6.55;3.65;;;;;;;28.29;32.65;99873.72;5104467;28;20058;-25
2023/07/29 07:58:49;;;;;;;5.57;3.92;;;;;;;28.30;33.12;99874.53;5104138;28;20032;-24
2023/07/29 08:01:15;;;;;;;5.28;3.33;;;;;;;28.51;31.93;99879.94;5104094;28;20075;-24
2023/07/29 08:03:40;;;;;;;5.60;3.88;;;;;;;28.67;33.14;99871.78;5103958;28;20031;-24
2023/07/29 08:06:06;;;;;;;7.30;3.45;;;;;;;28.93;31.38;99863.97;5104522;28;20034;-23
2023/07/29 08:08:31;;;;;;;7.85;3.97;;;;;;;29.10;30.72;99879.34;5104187;28;20035;-24
2023/07/29 08:10:57;;;;;;;8.85;3.90;;;;;;;29.08;31.36;99865.19;5103963;28;20443;-25
2023/07/29 08:13:24;;;;;;;6.43;3.70;;;;;;;29.11;31.67;99875.47;5103943;28;20067;-23
2023/07/29 08:15:52;;;;;;;6.22;4.03;;;;;;;29.33;30.52;99876.09;5104043;28;20088;-24
2023/07/29 08:18:17;;;;;;;7.03;3.80;;;;;;;29.47;30.00;99878.44;5104193;28;20126;-24
2023/07/29 08:20:53;;;;;;;5.70;3.83;;;;;;;29.50;31.08;99864.78;5104153;28;20087;-26
2023/07/29 08:23:19;;;;;;;5.85;3.60;;;;;;;29.61;29.42;99865.88;5103903;28;20571;-24
2023/07/29 08:25:44;;;;;;;8.32;3.88;;;;;;;29.59;29.36;99861.88;5104355;28;20042;-25
2023/07/29 08:28:11;;;;;;;6.95;3.30;;;;;;;29.94;28.79;99864.00;5102848;28;20104;-23
2023/07/29 08:30:36;;;;;;;4.50;3.10;;;;;;;30.24;28.13;99862.38;5103982;28;20032;-25
2023/07/29 08:33:02;;;;;;;5.43;3.45;;;;;;;30.39;28.49;99857.25;5104164;28;20073;-25
2023/07/29 08:35:27;;;;;;;4.93;2.78;;;;;;;30.61;29.37;99855.78;5103820;28;20558;-26
2023/07/29 08:37:53;;;;;;;7.18;3.45;;;;;;;30.59;28.46;99847.09;5104224;28;20036;-24
2023/07/29 08:40:27;;;;;;;4.85;3.35;;;;;;;30.66;28.33;99841.72;5104406;28;20428;-25
2023/07/29 08:42:55;;;;;;;6.07;3.13;;;;;;;30.74;27.34;99848.97;5104446;28;20035;-24
2023/07/29 08:45:20;;;;;;;7.68;3.17;;;;;;;30.87;27.27;99843.31;5103780;28;20027;-24
2023/07/29 08:47:48;;;;;;;4.43;3.00;;;;;;;30.95;27.19;99839.59;5104167;28;20031;-25
2023/07/29 08:50:16;;;;;;;5.40;2.95;;;;;;;31.03;26.78;99827.56;5103434;28;20030;-24
2023/07/29 08:52:44;;;;;;;4.88;2.78;;;;;;;31.01;27.62;99830.69;5104104;28;20051;-27
2023/07/29 08:55:09;;;;;;;5.55;3.00;;;;;;;31.18;27.31;99834.97;5105497;28;20587;-25
2023/07/29 08:57:35;;;;;;;4.65;3.03;;;;;;;31.42;25.35;99833.03;5107181;28;20518;-24
2023/07/29 09:00:02;;;;;;;6.28;2.90;;;;;;;31.36;26.45;99829.75;5107007;28;20475;-25
2023/07/29 09:02:27;;;;;;;11.68;3.30;;;;;;;31.38;26.90;99826.66;5106885;28;20050;-25
2023/07/29 09:04:53;;;;;;;5.15;2.70;;;;;;;31.54;26.22;99821.84;5107040;28;20699;-25
2023/07/29 09:07:19;;;;;;;10.23;6.10;;;;;;;31.63;26.22;99816.91;5106618;28;20427;-25
2023/07/29 09:09:44;;;;;;;6.25;2.80;;;;;;;31.69;24.68;99827.63;5106873;28;20031;-25
2023/07/29 09:12:12;;;;;;;4.85;2.83;;;;;;;32.11;24.13;99824.81;5106895;28;20023;-25
2023/07/29 09:14:37;;;;;;;3.28;2.38;;;;;;;32.10;24.36;99816.88;5106834;28;20651;-25
2023/07/29 09:17:09;;;;;;;4.57;2.60;;;;;;;32.40;25.12;99811.41;5106763;28;20568;-26
2023/07/29 09:19:35;;;;;;;6.80;2.80;;;;;;;32.37;24.31;99810.22;5106904;28;20051;-25
2023/07/29 09:22:00;;;;;;;7.88;3.45;;;;;;;32.15;25.59;99813.84;5106653;28;20800;-25
2023/07/29 09:24:29;;;;;;;9.48;3.70;;;;;;;32.25;23.93;99810.44;5106695;28;20027;-25
2023/07/29 09:26:57;;;;;;;9.63;4.53;;;;;;;32.19;25.03;99800.88;5106891;28;20027;-26
2023/07/29 09:29:28;;;;;;;4.70;2.38;;;;;;;32.27;24.74;99805.34;5106579;28;20558;-25
2023/07/29 09:31:53;;;;;;;3.78;2.05;;;;;;;32.20;24.82;99799.69;5106686;28;20035;-25
2023/07/29 09:34:18;;;;;;;3.75;2.20;;;;;;;32.09;23.70;99796.00;5106806;28;20032;-25
2023/07/29 09:36:44;;;;;;;5.40;2.40;;;;;;;32.08;23.43;99797.16;5106566;28;20023;-25
2023/07/29 09:39:13;;;;;;;4.07;2.10;;;;;;;32.46;23.31;99795.34;5106796;28;20023;-26
2023/07/29 09:41:38;;;;;;;5.15;2.60;;;;;;;32.87;22.92;99793.53;5107062;28;20123;-25
2023/07/29 09:44:04;;;;;;;4.30;2.40;;;;;;;32.68;21.96;99797.25;5106478;28;20114;-27
2023/07/29 09:46:37;;;;;;;3.25;2.22;;;;;;;32.79;22.00;99781.59;5106617;28;20020;-25
2023/07/29 09:49:05;;;;;;;5.70;2.60;;;;;;;32.99;22.20;99771.16;5106575;28;20587;-25
2023/07/29 09:51:31;;;;;;;33.08;12.45;;;;;;;33.38;24.15;99778.31;5106041;28;20035;-25
2023/07/29 09:53:58;;;;;;;4.45;2.20;;;;;;;33.15;20.68;99781.25;5105877;28;20091;-25
2023/07/29 09:56:29;;;;;;;27.15;8.10;;;;;;;33.47;23.62;99766.91;5106751;28;20027;-25
2023/07/29 09:58:57;;;;;;;5.00;2.40;;;;;;;33.54;22.13;99773.31;5106144;28;20024;-25
2023/07/29 10:01:23;;;;;;;5.10;2.40;;;;;;;33.41;21.25;99783.88;5106246;28;20047;-26
2023/07/29 10:03:51;;;;;;;5.82;2.38;;;;;;;32.93;21.54;99763.59;5105953;28;20050;-25
2023/07/29 10:06:18;;;;;;;5.03;2.40;;;;;;;33.05;21.46;99770.84;5104767;28;20035;-26
2023/07/29 10:08:43;;;;;;;9.02;3.45;;;;;;;33.41;21.20;99774.78;5106293;28;20630;-25
2023/07/29 10:11:10;;;;;;;81.72;29.13;;;;;;;33.29;24.50;99758.50;5106188;28;20511;-25
2023/07/29 10:13:36;;;;;;;;;;;;;;;33.39;22.02;99769.63;5106314;28;20028;-24
2023/07/29 10:16:05;;;;;;;5.25;2.50;;;;;;;33.94;21.39;99779.16;5105833;28;19923;-23
2023/07/29 10:18:31;;;;;;;4.50;2.75;;;;;;;34.18;20.63;99764.75;5106070;28;20047;-24
2023/07/29 10:20:58;;;;;;;4.07;2.13;;;;;;;34.32;20.77;99752.94;5105889;28;20031;-24
2023/07/29 10:23:28;;;;;;;;;;;;;;;34.20;20.34;99767.94;5105812;28;20028;-26
2023/07/29 10:26:06;;;;;;;6.05;2.72;;;;;;;34.46;20.31;99743.94;5105611;28;20411;-24
2023/07/29 10:28:35;;;;;;;3.88;2.40;;;;;;;34.68;21.05;99753.16;5105572;28;20050;-24
2023/07/29 10:31:03;;;;;;;4.30;2.20;;;;;;;35.05;19.92;99754.81;5105263;28;20020;-26
2023/07/29 10:33:32;;;;;;;4.05;2.30;;;;;;;34.61;19.57;99753.06;5105573;28;20404;-25
2023/07/29 10:36:00;;;;;;;3.95;2.25;;;;;;;34.20;19.67;99753.28;5105219;28;20032;-24
2023/07/29 10:38:26;;;;;;;3.55;2.00;;;;;;;34.54;20.48;99748.31;5105269;28;20043;-23
2023/07/29 10:40:55;;;;;;;2.83;2.10;;;;;;;34.60;20.00;99734.88;5105460;28;20693;-25
2023/07/29 10:43:27;;;;;;;3.53;1.95;;;;;;;34.53;19.16;99740.38;5105768;28;20031;-25
2023/07/29 10:45:53;;;;;;;7.03;2.15;;;;;;;34.71;20.64;99740.47;5105400;28;20563;-24
2023/07/29 10:48:37;;;;;;;4.13;2.13;;;;;;;34.92;19.47;99729.47;5105057;28;20030;-25
2023/07/29 10:51:40;;;;;;;3.35;2.20;;;;;;;34.68;20.03;99725.44;5104976;28;20032;-26
2023/07/29 10:54:14;;;;;;;4.05;2.58;;;;;;;34.90;20.47;99719.94;5105039;28;20035;-25
2023/07/29 10:56:41;;;;;;;4.18;2.10;;;;;;;35.07;19.06;99721.97;5105212;28;20111;-26
2023/07/29 10:59:12;;;;;;;3.78;2.15;;;;;;;35.42;19.51;99723.22;5105457;28;20016;-25
2023/07/29 11:01:42;;;;;;;5.55;2.25;;;;;;;35.41;19.88;99721.63;5104669;28;20039;-24
2023/07/29 11:04:23;;;;;;;4.65;1.98;;;;;;;35.56;20.40;99711.31;5104787;28;20038;-27
2023/07/29 11:07:04;;;;;;;3.80;1.95;;;;;;;35.98;19.43;99713.28;5104382;28;20028;-25
2023/07/29 11:09:48;;;;;;;3.85;1.90;;;;;;;36.06;19.23;99716.78;5105088;28;20028;-25
2023/07/29 11:12:32;;;;;;;4.78;1.92;;;;;;;36.44;19.21;99710.75;5105080;28;20023;-26
2023/07/29 11:15:02;;;;;;;4.95;2.40;;;;;;;36.11;18.99;99712.84;5105170;28;20027;-25
2023/07/29 11:17:29;;;;;;;4.38;2.03;;;;;;;36.34;18.69;99702.06;5104651;28;20516;-26
2023/07/29 11:19:58;;;;;;;2.88;2.10;;;;;;;36.35;18.72;99692.56;5104746;28;20084;-29
2023/07/29 11:22:25;;;;;;;3.70;2.10;;;;;;;36.80;18.55;99701.06;5104828;28;20028;-25
2023/07/29 11:25:00;;;;;;;5.07;2.00;;;;;;;36.58;18.51;99707.91;5104776;28;20042;-26
2023/07/29 11:27:26;;;;;;;3.47;1.88;;;;;;;36.72;18.62;99693.97;5104539;28;20119;-25
2023/07/29 11:29:57;;;;;;;2.92;2.03;;;;;;;36.40;18.49;99692.13;5104583;28;20031;-25
2023/07/29 11:32:22;;;;;;;3.75;2.10;;;;;;;36.16;18.82;99693.00;5104621;28;20080;-24
2023/07/29 11:34:48;;;;;;;4.38;2.10;;;;;;;36.57;17.72;99689.66;5104785;28;20027;-25